RYR2TL EPMO-EGSS
Flight info
| Callsign | RYR2TL |
|---|---|
| Flight time | N/A |
| Altitude | 38000 |
| Route | OLILA DCT MEBIV DCT RILAB L621 SOMOR DCT TADAK L29 ALUKA DCT GARLU DCT NOGRO M40 RINIS |
| Aircraft | B738/M-SDE3FGILRWY/SB1 |
Departure
| Time | 2026-05-04 09:49 |
|---|---|
| Airport | Warsaw Modlin Airport (EPMO) |
Arrival
| Time | N/A |
|---|---|
| Airport | London Stansted Airport (EGSS) |
| Time | Latitude | Longitude | Altitude | Speed | Heading |
|---|---|---|---|---|---|
| 2026-05-04 09:22 | 52.44748 | 20.65261 | 337 ft | 0 kts | 206° |
| 2026-05-04 09:39 | 52.44749 | 20.65262 | 364 ft | 2 kts | 206° |
| 2026-05-04 09:39 | 52.44764 | 20.65274 | 332 ft | 2 kts | 206° |
| 2026-05-04 09:39 | 52.44779 | 20.65286 | 334 ft | 2 kts | 194° |
| 2026-05-04 09:39 | 52.44790 | 20.65273 | 332 ft | 2 kts | 99° |
| 2026-05-04 09:40 | 52.44791 | 20.65251 | 334 ft | 1 kts | 83° |
| 2026-05-04 09:40 | 52.44791 | 20.65249 | 334 ft | 0 kts | 82° |
| 2026-05-04 09:42 | 52.44792 | 20.65260 | 335 ft | 3 kts | 82° |
| 2026-05-04 09:43 | 52.44797 | 20.65327 | 335 ft | 9 kts | 82° |
| 2026-05-04 09:43 | 52.44808 | 20.65441 | 332 ft | 10 kts | 81° |
| 2026-05-04 09:43 | 52.44819 | 20.65555 | 335 ft | 10 kts | 81° |
| 2026-05-04 09:43 | 52.44829 | 20.65667 | 337 ft | 10 kts | 82° |
| 2026-05-04 09:44 | 52.44838 | 20.65774 | 336 ft | 10 kts | 82° |
| 2026-05-04 09:44 | 52.44848 | 20.65880 | 337 ft | 9 kts | 82° |
| 2026-05-04 09:44 | 52.44857 | 20.65984 | 337 ft | 10 kts | 81° |
| 2026-05-04 09:46 | 52.44951 | 20.66993 | 337 ft | 15 kts | 82° |
| 2026-05-04 09:46 | 52.44994 | 20.67074 | 335 ft | 10 kts | 9° |
| 2026-05-04 09:46 | 52.45065 | 20.67064 | 334 ft | 10 kts | 352° |
| 2026-05-04 09:47 | 52.45133 | 20.67048 | 335 ft | 10 kts | 352° |
| 2026-05-04 09:47 | 52.45198 | 20.67025 | 335 ft | 10 kts | 339° |
| 2026-05-04 09:49 | 52.44690 | 20.60904 | 2187 ft | 144 kts | 258° |
| 2026-05-04 09:49 | 52.44496 | 20.59155 | 2712 ft | 167 kts | 260° |
| 2026-05-04 09:49 | 52.44713 | 20.57217 | 3489 ft | 179 kts | 291° |
| 2026-05-04 09:51 | 52.48464 | 20.42933 | 7032 ft | 260 kts | 290° |
| 2026-05-04 09:51 | 52.49158 | 20.40175 | 7918 ft | 263 kts | 290° |
| 2026-05-04 09:51 | 52.49850 | 20.37386 | 8798 ft | 266 kts | 290° |
| 2026-05-04 09:51 | 52.50547 | 20.34563 | 9688 ft | 268 kts | 290° |
| 2026-05-04 09:52 | 52.51250 | 20.31709 | 10424 ft | 276 kts | 289° |
| 2026-05-04 09:52 | 52.51997 | 20.28642 | 10626 ft | 302 kts | 289° |
| 2026-05-04 09:52 | 52.52803 | 20.25323 | 10935 ft | 322 kts | 289° |
| 2026-05-04 09:52 | 52.53646 | 20.21864 | 11576 ft | 329 kts | 289° |
| 2026-05-04 09:53 | 52.54501 | 20.18353 | 12370 ft | 332 kts | 289° |
| 2026-05-04 09:53 | 52.55363 | 20.14809 | 13125 ft | 337 kts | 288° |
| 2026-05-04 09:53 | 52.56236 | 20.11209 | 13873 ft | 341 kts | 288° |
| 2026-05-04 09:53 | 52.57117 | 20.07563 | 14553 ft | 345 kts | 288° |
| 2026-05-04 09:54 | 52.58005 | 20.03888 | 15285 ft | 347 kts | 288° |
| 2026-05-04 09:54 | 52.58896 | 20.00187 | 15999 ft | 350 kts | 288° |
| 2026-05-04 09:54 | 52.59795 | 19.96444 | 16673 ft | 354 kts | 288° |
| 2026-05-04 09:54 | 52.60702 | 19.92667 | 17364 ft | 357 kts | 288° |
| 2026-05-04 09:55 | 52.61615 | 19.88854 | 18035 ft | 360 kts | 288° |
| 2026-05-04 09:55 | 52.62537 | 19.84996 | 18662 ft | 364 kts | 288° |
| 2026-05-04 09:55 | 52.63465 | 19.81105 | 19241 ft | 367 kts | 288° |
| 2026-05-04 09:55 | 52.64401 | 19.77172 | 19797 ft | 371 kts | 288° |
| 2026-05-04 09:56 | 52.65346 | 19.73200 | 20352 ft | 374 kts | 288° |
| 2026-05-04 09:56 | 52.66298 | 19.69189 | 20931 ft | 377 kts | 288° |
| 2026-05-04 09:56 | 52.67255 | 19.65148 | 21485 ft | 380 kts | 288° |
| 2026-05-04 09:56 | 52.68206 | 19.61123 | 22006 ft | 384 kts | 288° |
| 2026-05-04 09:57 | 52.69179 | 19.57001 | 22530 ft | 388 kts | 288° |
| 2026-05-04 09:57 | 52.70160 | 19.52835 | 23051 ft | 391 kts | 289° |
| 2026-05-04 09:57 | 52.71146 | 19.48638 | 23560 ft | 395 kts | 289° |
| 2026-05-04 09:57 | 52.72141 | 19.44398 | 23982 ft | 398 kts | 289° |
| 2026-05-04 09:58 | 52.73139 | 19.40137 | 24463 ft | 399 kts | 289° |
| 2026-05-04 09:58 | 52.74140 | 19.35855 | 24919 ft | 401 kts | 289° |
| 2026-05-04 09:58 | 52.75144 | 19.31550 | 25326 ft | 404 kts | 288° |
| 2026-05-04 10:00 | 52.82309 | 19.00560 | 28048 ft | 421 kts | 288° |
| 2026-05-04 10:00 | 52.83349 | 18.96026 | 28449 ft | 422 kts | 288° |
| 2026-05-04 10:02 | 52.90685 | 18.63760 | 31001 ft | 428 kts | 287° |
| 2026-05-04 10:04 | 52.97827 | 18.31871 | 33811 ft | 416 kts | 287° |
| 2026-05-04 10:04 | 52.98824 | 18.27376 | 34140 ft | 415 kts | 287° |
| 2026-05-04 10:04 | 52.99819 | 18.22883 | 34414 ft | 414 kts | 287° |
| 2026-05-04 10:04 | 53.00811 | 18.18388 | 34630 ft | 416 kts | 287° |
| 2026-05-04 10:05 | 53.01805 | 18.13877 | 34859 ft | 416 kts | 287° |
| 2026-05-04 10:05 | 53.02797 | 18.09369 | 35124 ft | 416 kts | 287° |
| 2026-05-04 10:05 | 53.03787 | 18.04860 | 35398 ft | 415 kts | 287° |
| 2026-05-04 10:05 | 53.04776 | 18.00348 | 35674 ft | 415 kts | 287° |
| 2026-05-04 10:06 | 53.05760 | 17.95845 | 35905 ft | 415 kts | 287° |
| 2026-05-04 10:06 | 53.06743 | 17.91337 | 36147 ft | 415 kts | 287° |
| 2026-05-04 10:06 | 53.07725 | 17.86826 | 36387 ft | 414 kts | 287° |
| 2026-05-04 10:08 | 53.13570 | 17.59758 | 37736 ft | 414 kts | 287° |
| 2026-05-04 10:08 | 53.14536 | 17.55250 | 37981 ft | 413 kts | 286° |
| 2026-05-04 10:08 | 53.16462 | 17.46230 | 37955 ft | 417 kts | 286° |
| 2026-05-04 10:09 | 53.18393 | 17.37150 | 37948 ft | 413 kts | 286° |
| 2026-05-04 10:09 | 53.20296 | 17.28167 | 37958 ft | 409 kts | 286° |
| 2026-05-04 10:10 | 53.22178 | 17.19236 | 37952 ft | 407 kts | 286° |
| 2026-05-04 10:10 | 53.24044 | 17.10338 | 37980 ft | 406 kts | 285° |
| 2026-05-04 10:11 | 53.25902 | 17.01449 | 37969 ft | 405 kts | 285° |
| 2026-05-04 10:11 | 53.27463 | 16.92456 | 37955 ft | 400 kts | 274° |
| 2026-05-04 10:12 | 53.27427 | 16.83235 | 37950 ft | 397 kts | 258° |
| 2026-05-04 10:12 | 53.26180 | 16.74265 | 37967 ft | 397 kts | 256° |
| 2026-05-04 10:13 | 53.24906 | 16.65265 | 37964 ft | 399 kts | 256° |
| 2026-05-04 10:13 | 53.23653 | 16.56221 | 37969 ft | 401 kts | 256° |
| 2026-05-04 10:14 | 53.22384 | 16.47136 | 37958 ft | 403 kts | 256° |
| 2026-05-04 10:16 | 53.17217 | 16.10664 | 37964 ft | 404 kts | 256° |
| 2026-05-04 10:16 | 53.15911 | 16.01575 | 37953 ft | 403 kts | 255° |
| 2026-05-04 10:17 | 53.14602 | 15.92517 | 37970 ft | 402 kts | 255° |
| 2026-05-04 10:19 | 53.09320 | 15.56545 | 37985 ft | 399 kts | 255° |
| 2026-05-04 10:19 | 53.07988 | 15.47596 | 37970 ft | 398 kts | 255° |
| 2026-05-04 10:20 | 53.06651 | 15.38660 | 37979 ft | 399 kts | 255° |
| 2026-05-04 10:20 | 53.05315 | 15.29780 | 37984 ft | 399 kts | 254° |
| 2026-05-04 10:21 | 53.03958 | 15.20819 | 37978 ft | 400 kts | 254° |
| 2026-05-04 10:21 | 53.02593 | 15.11846 | 37960 ft | 401 kts | 254° |
| 2026-05-04 10:22 | 53.00524 | 14.98348 | 37985 ft | 403 kts | 254° |
| 2026-05-04 10:23 | 52.99131 | 14.89321 | 37976 ft | 404 kts | 254° |
| 2026-05-04 10:25 | 52.93477 | 14.53175 | 37976 ft | 405 kts | 254° |
| 2026-05-04 10:25 | 52.92047 | 14.44154 | 37971 ft | 405 kts | 253° |
| 2026-05-04 10:26 | 52.90855 | 14.36668 | 37976 ft | 404 kts | 253° |
| 2026-05-04 10:26 | 52.89802 | 14.27523 | 37978 ft | 407 kts | 266° |
| 2026-05-04 10:27 | 52.89736 | 14.18158 | 37972 ft | 407 kts | 267° |
| 2026-05-04 10:27 | 52.89672 | 14.08790 | 37968 ft | 406 kts | 266° |
| 2026-05-04 10:28 | 52.89585 | 13.99436 | 37980 ft | 406 kts | 266° |
| 2026-05-04 10:28 | 52.89480 | 13.90088 | 37973 ft | 406 kts | 266° |
| 2026-05-04 10:29 | 52.89364 | 13.80741 | 37974 ft | 406 kts | 266° |
| 2026-05-04 10:29 | 52.89241 | 13.71395 | 37975 ft | 407 kts | 266° |
| 2026-05-04 10:30 | 52.89111 | 13.62035 | 37980 ft | 407 kts | 266° |
| 2026-05-04 10:30 | 52.88973 | 13.52644 | 37978 ft | 408 kts | 266° |
| 2026-05-04 10:31 | 52.88828 | 13.43299 | 37976 ft | 409 kts | 266° |
| 2026-05-04 10:32 | 52.88256 | 13.10167 | 37973 ft | 413 kts | 266° |
| 2026-05-04 10:33 | 52.88075 | 13.00659 | 37963 ft | 413 kts | 266° |
| 2026-05-04 10:33 | 52.87886 | 12.91148 | 37960 ft | 413 kts | 266° |
| 2026-05-04 10:34 | 52.87690 | 12.81644 | 37956 ft | 413 kts | 266° |
| 2026-05-04 10:34 | 52.87486 | 12.72145 | 37955 ft | 413 kts | 266° |
| 2026-05-04 10:35 | 52.87275 | 12.62664 | 37962 ft | 412 kts | 266° |
| 2026-05-04 10:35 | 52.87057 | 12.53189 | 37960 ft | 411 kts | 266° |
| 2026-05-04 10:36 | 52.86833 | 12.43808 | 37957 ft | 410 kts | 265° |
| 2026-05-04 10:36 | 52.86601 | 12.34385 | 37966 ft | 409 kts | 265° |
| 2026-05-04 10:37 | 52.86362 | 12.24977 | 37966 ft | 409 kts | 265° |
| 2026-05-04 10:37 | 52.86115 | 12.15583 | 37982 ft | 408 kts | 265° |
| 2026-05-04 10:39 | 52.85195 | 11.82734 | 37977 ft | 408 kts | 265° |
| 2026-05-04 10:40 | 52.84916 | 11.73352 | 37977 ft | 409 kts | 265° |
| 2026-05-04 10:40 | 52.84628 | 11.63954 | 37992 ft | 409 kts | 265° |
| 2026-05-04 10:41 | 52.84334 | 11.54552 | 37986 ft | 410 kts | 265° |
| 2026-05-04 10:41 | 52.84031 | 11.45133 | 37976 ft | 410 kts | 265° |
| 2026-05-04 10:42 | 52.83721 | 11.35724 | 37972 ft | 410 kts | 265° |
| 2026-05-04 10:42 | 52.83404 | 11.26323 | 37974 ft | 410 kts | 265° |
| 2026-05-04 10:43 | 52.83081 | 11.16917 | 37980 ft | 409 kts | 265° |
| 2026-05-04 10:45 | 52.80496 | 10.79626 | 37981 ft | 407 kts | 262° |
| 2026-05-04 10:45 | 52.79779 | 10.70343 | 37978 ft | 407 kts | 262° |
| 2026-05-04 10:46 | 52.79060 | 10.61078 | 37998 ft | 406 kts | 262° |
| 2026-05-04 10:46 | 52.78337 | 10.51819 | 37973 ft | 406 kts | 261° |
| 2026-05-04 10:47 | 52.77607 | 10.42575 | 37983 ft | 405 kts | 261° |
| 2026-05-04 10:47 | 52.76871 | 10.33359 | 37988 ft | 405 kts | 261° |
| 2026-05-04 10:49 | 52.73871 | 9.96686 | 37991 ft | 403 kts | 261° |
| 2026-05-04 10:50 | 52.73103 | 9.87528 | 37991 ft | 403 kts | 261° |
| 2026-05-04 10:52 | 52.69961 | 9.50909 | 37984 ft | 403 kts | 261° |
| 2026-05-04 10:52 | 52.69157 | 9.41758 | 37988 ft | 404 kts | 261° |
| 2026-05-04 10:54 | 52.65865 | 9.05097 | 37977 ft | 405 kts | 260° |
| 2026-05-04 10:56 | 52.62462 | 8.68527 | 37984 ft | 402 kts | 259° |
| 2026-05-04 10:57 | 52.61603 | 8.59497 | 37981 ft | 401 kts | 259° |
| 2026-05-04 10:57 | 52.60735 | 8.50439 | 38005 ft | 400 kts | 259° |
| 2026-05-04 10:58 | 52.59861 | 8.41397 | 37999 ft | 401 kts | 259° |
| 2026-05-04 10:58 | 52.58978 | 8.32342 | 37996 ft | 401 kts | 259° |
| 2026-05-04 10:59 | 52.58090 | 8.23302 | 37991 ft | 400 kts | 259° |
| 2026-05-04 10:59 | 52.57197 | 8.14289 | 37993 ft | 399 kts | 259° |
| 2026-05-04 11:00 | 52.56299 | 8.05292 | 37986 ft | 399 kts | 259° |
| 2026-05-04 11:02 | 52.52633 | 7.69308 | 37983 ft | 401 kts | 259° |
| 2026-05-04 11:05 | 52.45428 | 7.01639 | 37979 ft | 401 kts | 257° |
| 2026-05-04 11:06 | 52.44440 | 6.92655 | 37976 ft | 401 kts | 257° |
| 2026-05-04 11:06 | 52.43446 | 6.83677 | 37983 ft | 400 kts | 257° |
| 2026-05-04 11:10 | 52.36282 | 6.20817 | 37986 ft | 404 kts | 256° |
| 2026-05-04 11:12 | 52.31986 | 5.84547 | 37996 ft | 408 kts | 256° |
| 2026-05-04 11:12 | 52.30887 | 5.75428 | 37992 ft | 409 kts | 256° |
| 2026-05-04 11:13 | 52.29779 | 5.66291 | 37990 ft | 411 kts | 256° |
| 2026-05-04 11:13 | 52.28660 | 5.57133 | 37990 ft | 411 kts | 256° |
| 2026-05-04 11:16 | 52.23140 | 5.12833 | 37992 ft | 414 kts | 256° |
| 2026-05-04 11:16 | 52.21971 | 5.03638 | 37987 ft | 414 kts | 256° |
| 2026-05-04 11:17 | 52.20796 | 4.94447 | 37995 ft | 414 kts | 256° |
| 2026-05-04 11:19 | 52.16006 | 4.57607 | 37980 ft | 417 kts | 255° |
| 2026-05-04 11:19 | 52.14786 | 4.48376 | 37985 ft | 417 kts | 255° |
| 2026-05-04 11:20 | 52.13556 | 4.39131 | 37992 ft | 418 kts | 255° |
| 2026-05-04 11:20 | 52.12317 | 4.29875 | 37998 ft | 419 kts | 255° |
| 2026-05-04 11:22 | 52.07911 | 3.97422 | 37052 ft | 416 kts | 255° |
| 2026-05-04 11:22 | 52.07286 | 3.92865 | 36708 ft | 410 kts | 255° |
| 2026-05-04 11:23 | 52.06666 | 3.88366 | 36314 ft | 406 kts | 255° |
| 2026-05-04 11:23 | 52.06051 | 3.83918 | 35942 ft | 402 kts | 255° |
| 2026-05-04 11:24 | 52.02450 | 3.58150 | 33657 ft | 379 kts | 254° |
| 2026-05-04 11:25 | 52.01866 | 3.54012 | 33280 ft | 374 kts | 253° |
| 2026-05-04 11:25 | 52.01287 | 3.49923 | 32902 ft | 370 kts | 253° |
| 2026-05-04 11:25 | 52.00714 | 3.45882 | 32549 ft | 365 kts | 253° |
| 2026-05-04 11:26 | 51.99581 | 3.37928 | 31820 ft | 359 kts | 253° |
| 2026-05-04 11:27 | 51.96104 | 3.10911 | 29347 ft | 343 kts | 260° |
| 2026-05-04 11:28 | 51.95875 | 3.07080 | 28989 ft | 340 kts | 260° |
| 2026-05-04 11:28 | 51.95649 | 3.03295 | 28650 ft | 336 kts | 260° |
| 2026-05-04 11:28 | 51.95420 | 2.99594 | 28304 ft | 333 kts | 260° |
| 2026-05-04 11:28 | 51.95182 | 2.95877 | 27954 ft | 330 kts | 260° |
| 2026-05-04 11:29 | 51.94940 | 2.92195 | 27635 ft | 327 kts | 260° |
| 2026-05-04 11:29 | 51.94696 | 2.88548 | 27283 ft | 325 kts | 260° |
| 2026-05-04 11:29 | 51.94451 | 2.84921 | 26943 ft | 322 kts | 260° |
| 2026-05-04 11:29 | 51.94206 | 2.81321 | 26610 ft | 320 kts | 260° |
| 2026-05-04 11:31 | 51.92498 | 2.56494 | 24314 ft | 312 kts | 261° |
| 2026-05-04 11:33 | 51.90819 | 2.32460 | 21978 ft | 301 kts | 262° |
| 2026-05-04 11:33 | 51.90673 | 2.29089 | 21670 ft | 301 kts | 265° |
| 2026-05-04 11:33 | 51.90601 | 2.25678 | 21377 ft | 307 kts | 266° |
| 2026-05-04 11:34 | 51.90540 | 2.22184 | 21071 ft | 314 kts | 266° |
| 2026-05-04 11:34 | 51.90474 | 2.18619 | 20747 ft | 319 kts | 266° |
| 2026-05-04 11:34 | 51.90401 | 2.15031 | 20416 ft | 319 kts | 266° |
| 2026-05-04 11:34 | 51.90324 | 2.11439 | 20090 ft | 319 kts | 266° |
| 2026-05-04 11:35 | 51.90242 | 2.07846 | 19777 ft | 319 kts | 266° |
| 2026-05-04 11:35 | 51.90157 | 2.04250 | 19442 ft | 320 kts | 266° |
| 2026-05-04 11:35 | 51.90072 | 2.00653 | 19120 ft | 320 kts | 266° |
| 2026-05-04 11:35 | 51.89984 | 1.97059 | 18793 ft | 319 kts | 266° |
| 2026-05-04 11:36 | 51.89895 | 1.93484 | 18472 ft | 317 kts | 266° |
| 2026-05-04 11:36 | 51.89840 | 1.89926 | 18120 ft | 316 kts | 272° |
| 2026-05-04 11:36 | 51.90386 | 1.86546 | 17808 ft | 316 kts | 292° |
| 2026-05-04 11:36 | 51.91364 | 1.83389 | 17531 ft | 312 kts | 296° |
| 2026-05-04 11:37 | 51.92397 | 1.80314 | 17250 ft | 310 kts | 297° |
| 2026-05-04 11:37 | 51.93433 | 1.77273 | 16977 ft | 307 kts | 297° |
| 2026-05-04 11:37 | 51.94456 | 1.74252 | 16706 ft | 304 kts | 296° |
| 2026-05-04 11:37 | 51.95464 | 1.71248 | 16438 ft | 302 kts | 296° |
| 2026-05-04 11:38 | 51.96459 | 1.68260 | 16177 ft | 300 kts | 296° |
| 2026-05-04 11:38 | 51.97444 | 1.65285 | 15918 ft | 299 kts | 296° |
| 2026-05-04 11:38 | 51.98421 | 1.62323 | 15658 ft | 298 kts | 296° |
| 2026-05-04 11:38 | 51.99394 | 1.59362 | 15400 ft | 297 kts | 296° |
| 2026-05-04 11:39 | 52.00363 | 1.56408 | 15143 ft | 296 kts | 296° |
| 2026-05-04 11:39 | 52.01330 | 1.53453 | 14885 ft | 296 kts | 296° |
| 2026-05-04 11:40 | 52.07107 | 1.35720 | 13281 ft | 296 kts | 296° |
| 2026-05-04 11:41 | 52.08066 | 1.32767 | 13017 ft | 295 kts | 296° |
| 2026-05-04 11:41 | 52.09018 | 1.29831 | 12753 ft | 293 kts | 296° |
| 2026-05-04 11:41 | 52.09966 | 1.26902 | 12489 ft | 292 kts | 296° |
| 2026-05-04 11:41 | 52.10908 | 1.23988 | 12237 ft | 290 kts | 296° |
| 2026-05-04 11:42 | 52.11548 | 1.20927 | 11955 ft | 286 kts | 272° |
| 2026-05-04 11:42 | 52.11403 | 1.17746 | 11744 ft | 281 kts | 258° |
| 2026-05-04 11:42 | 52.10945 | 1.14671 | 11500 ft | 279 kts | 254° |
| 2026-05-04 11:42 | 52.10419 | 1.11643 | 11255 ft | 278 kts | 253° |
| 2026-05-04 11:43 | 52.09886 | 1.08629 | 11016 ft | 276 kts | 253° |
| 2026-05-04 11:43 | 52.09361 | 1.05629 | 10770 ft | 276 kts | 254° |
| 2026-05-04 11:43 | 52.08844 | 1.02638 | 10529 ft | 274 kts | 254° |
| 2026-05-04 11:43 | 52.08334 | 0.99654 | 10292 ft | 273 kts | 254° |
| 2026-05-04 11:44 | 52.07837 | 0.96726 | 10056 ft | 271 kts | 254° |
| 2026-05-04 11:44 | 52.07341 | 0.93788 | 9805 ft | 268 kts | 254° |
| 2026-05-04 11:44 | 52.06850 | 0.90880 | 9558 ft | 265 kts | 254° |
| 2026-05-04 11:44 | 52.06363 | 0.87994 | 9311 ft | 264 kts | 254° |
| 2026-05-04 11:45 | 52.05879 | 0.85119 | 9081 ft | 265 kts | 254° |
| 2026-05-04 11:45 | 52.05390 | 0.82227 | 8850 ft | 266 kts | 254° |
| 2026-05-04 11:45 | 52.04900 | 0.79326 | 8618 ft | 267 kts | 254° |
| 2026-05-04 11:45 | 52.04407 | 0.76412 | 8387 ft | 268 kts | 254° |
| 2026-05-04 11:46 | 52.03913 | 0.73491 | 8144 ft | 268 kts | 254° |
| 2026-05-04 11:46 | 52.03419 | 0.70575 | 7903 ft | 268 kts | 254° |
| 2026-05-04 11:46 | 52.02928 | 0.67682 | 7677 ft | 264 kts | 254° |
| 2026-05-04 11:46 | 52.02439 | 0.64817 | 7446 ft | 261 kts | 254° |
| 2026-05-04 11:47 | 52.01958 | 0.61996 | 7218 ft | 258 kts | 254° |
| 2026-05-04 11:47 | 52.01512 | 0.59187 | 6998 ft | 255 kts | 261° |
| 2026-05-04 11:47 | 52.01337 | 0.56336 | 6782 ft | 252 kts | 266° |
| 2026-05-04 11:47 | 52.01221 | 0.53511 | 6560 ft | 250 kts | 266° |
| 2026-05-04 11:48 | 52.01094 | 0.50710 | 6320 ft | 249 kts | 265° |
| 2026-05-04 11:48 | 52.00955 | 0.47918 | 6086 ft | 246 kts | 265° |
| 2026-05-04 11:48 | 52.00829 | 0.45182 | 6008 ft | 239 kts | 266° |
| 2026-05-04 11:48 | 52.00727 | 0.42519 | 5993 ft | 236 kts | 266° |
| 2026-05-04 11:49 | 52.00626 | 0.39869 | 5986 ft | 234 kts | 266° |
| 2026-05-04 11:49 | 52.00522 | 0.37221 | 6008 ft | 236 kts | 266° |
| 2026-05-04 11:49 | 52.00414 | 0.34546 | 6006 ft | 240 kts | 266° |
| 2026-05-04 11:49 | 52.00304 | 0.31840 | 6010 ft | 240 kts | 266° |
| 2026-05-04 11:50 | 52.00191 | 0.29143 | 5989 ft | 239 kts | 264° |
| 2026-05-04 11:50 | 51.99643 | 0.26658 | 5986 ft | 236 kts | 229° |